KNEL/NEL METAR and TAF weather

Enter ICAO airport designator
Station Type Date Time Source
KNEL METAR 2021/05/11 22:00 UTC NOAA

KNEL 112200Z 28013KT 10SM SCT120 18/03 A3000 RMK AO2 SLP158 T01780028 $


Station Type Date Time Source
KNEL Decoded METAR 2021/05/11 22:00 UTC NOAA

Lakehurst Naval Air Station, NJ, United States (KNEL) 40-02N 074-19W 24M
May 11, 2021 - 06:00 PM EDT / 2021.05.11 2200 UTC
Wind: from the W (280 degrees) at 15 MPH (13 KT):0
Visibility: 10 mile(s):0
Sky conditions: partly cloudy
Temperature: 64.0 F (17.8 C)
Dew Point: 37.0 F (2.8 C)
Relative Humidity: 36%
Pressure (altimeter): 30 in. Hg (1015 hPa)
ob: KNEL 112200Z 28013KT 10SM SCT120 18/03 A3000 RMK AO2 SLP158 T01780028
cycle: 22

Station Type Date Time Source
KNEL TAF UTC NOAA

Error!

Example: see airport list